createdAt,value
2023-04-15T00:00:11.127Z,8.93
2023-04-15T00:02:45.821Z,8.94
2023-04-15T00:05:17.075Z,8.91
2023-04-15T00:07:48.017Z,8.88
2023-04-15T00:10:19.107Z,8.89
2023-04-15T00:12:49.864Z,8.95
2023-04-15T00:15:20.854Z,8.96
2023-04-15T00:17:53.045Z,8.94
2023-04-15T00:20:23.913Z,8.85
2023-04-15T00:22:54.729Z,8.82
2023-04-15T00:25:25.376Z,8.85
2023-04-15T00:27:56.147Z,8.86
2023-04-15T00:30:27.604Z,8.78
2023-04-15T00:32:58.530Z,8.74
2023-04-15T00:35:29.457Z,8.73
2023-04-15T00:38:00.309Z,8.70
2023-04-15T00:40:31.684Z,8.66
2023-04-15T00:43:02.785Z,8.67
2023-04-15T00:45:33.480Z,8.67
2023-04-15T00:48:04.778Z,8.69
2023-04-15T00:50:36.064Z,8.74
2023-04-15T00:53:07.048Z,8.82
2023-04-15T00:55:38.720Z,8.90
2023-04-15T00:58:09.341Z,8.95
2023-04-15T01:00:40.975Z,8.94
2023-04-15T01:03:11.851Z,8.93
2023-04-15T01:05:42.962Z,8.86
2023-04-15T01:08:13.873Z,8.89
2023-04-15T01:10:45.609Z,8.96
2023-04-15T01:13:16.737Z,8.94
2023-04-15T01:15:47.848Z,8.88
2023-04-15T01:18:19.266Z,8.79
2023-04-15T01:20:50.016Z,8.75
2023-04-15T01:23:22.079Z,8.78
2023-04-15T01:25:54.853Z,8.79
2023-04-15T01:28:25.937Z,8.78
2023-04-15T01:31:10.175Z,8.84
2023-04-15T01:33:40.148Z,8.87
2023-04-15T01:36:11.812Z,8.85
2023-04-15T01:38:42.641Z,8.82
2023-04-15T01:41:14.663Z,8.79
2023-04-15T01:43:45.748Z,8.74
2023-04-15T01:46:16.530Z,8.76
2023-04-15T01:48:47.281Z,8.81
2023-04-15T01:51:18.134Z,8.90
2023-04-15T01:53:48.761Z,9.02
2023-04-15T01:56:19.883Z,9.04
2023-04-15T01:58:51.029Z,9.07
2023-04-15T02:01:22.333Z,9.05
2023-04-15T02:03:53.314Z,9.04
2023-04-15T02:06:24.647Z,9.03
2023-04-15T02:08:55.358Z,9.00
2023-04-15T02:11:26.136Z,8.96
2023-04-15T02:13:57.027Z,8.96
2023-04-15T02:16:29.525Z,8.97
2023-04-15T02:19:00.924Z,9.00
2023-04-15T02:21:31.992Z,9.02
2023-04-15T02:24:04.282Z,9.03
2023-04-15T02:26:34.983Z,9.02
2023-04-15T02:29:06.943Z,8.99
2023-04-15T02:31:40.622Z,8.92
2023-04-15T02:34:11.657Z,8.83
2023-04-15T02:36:42.456Z,8.71
2023-04-15T02:39:14.923Z,8.66
2023-04-15T02:41:47.678Z,8.63
2023-04-15T02:44:20.378Z,8.59
2023-04-15T02:46:52.739Z,8.54
2023-04-15T02:49:25.614Z,8.53
2023-04-15T02:51:56.378Z,8.51
2023-04-15T02:54:28.839Z,8.56
2023-04-15T02:56:59.506Z,8.61
2023-04-15T02:59:30.825Z,8.67
2023-04-15T03:02:01.926Z,8.73
2023-04-15T03:04:32.716Z,8.72
2023-04-15T03:07:03.341Z,8.73
2023-04-15T03:09:35.026Z,8.70
2023-04-15T03:12:06.415Z,8.68
2023-04-15T03:14:37.210Z,8.62
2023-04-15T03:17:08.096Z,8.62
2023-04-15T03:19:38.766Z,8.67
2023-04-15T03:22:09.545Z,8.72
2023-04-15T03:24:40.284Z,8.75
2023-04-15T03:27:11.032Z,8.73
2023-04-15T03:29:41.773Z,8.70
2023-04-15T03:32:12.881Z,8.66
2023-04-15T03:34:43.758Z,8.60
2023-04-15T03:37:14.488Z,8.56
2023-04-15T03:39:45.124Z,8.55
2023-04-15T03:42:15.801Z,8.52
2023-04-15T03:44:46.493Z,8.50
2023-04-15T03:47:17.318Z,8.48
2023-04-15T03:49:48.028Z,8.50
2023-04-15T03:52:18.830Z,8.49
2023-04-15T03:54:49.585Z,8.47
2023-04-15T03:57:20.598Z,8.49
2023-04-15T03:59:51.272Z,8.47
2023-04-15T04:02:23.227Z,8.49
2023-04-15T04:04:54.454Z,8.52
2023-04-15T04:07:26.218Z,8.53
2023-04-15T04:09:58.085Z,8.60
2023-04-15T04:12:28.997Z,8.67
2023-04-15T04:14:59.702Z,8.71
2023-04-15T04:17:30.604Z,8.79
2023-04-15T04:20:01.218Z,8.84
2023-04-15T04:22:31.866Z,8.96
2023-04-15T04:25:02.700Z,9.04
2023-04-15T04:27:33.375Z,9.09
2023-04-15T04:30:04.940Z,9.11
2023-04-15T04:32:35.676Z,9.11
2023-04-15T04:35:07.323Z,9.05
2023-04-15T04:37:38.004Z,9.00
2023-04-15T04:40:10.934Z,8.98
2023-04-15T04:42:41.677Z,8.97
2023-04-15T04:45:13.398Z,8.93
2023-04-15T04:47:44.112Z,8.86
2023-04-15T04:50:15.092Z,8.89
2023-04-15T04:52:45.772Z,8.91
2023-04-15T04:55:16.763Z,8.90
2023-04-15T04:57:48.009Z,8.91
2023-04-15T05:00:19.450Z,8.91
2023-04-15T05:02:50.174Z,8.96
2023-04-15T05:05:21.562Z,9.01
2023-04-15T05:07:52.238Z,9.08
2023-04-15T05:10:22.969Z,9.12
2023-04-15T05:12:53.713Z,9.20
2023-04-15T05:15:24.619Z,9.24
2023-04-15T05:17:55.280Z,9.20
2023-04-15T05:20:26.103Z,9.22
2023-04-15T05:22:56.755Z,9.22
2023-04-15T05:25:27.701Z,9.22
2023-04-15T05:27:58.354Z,9.25
2023-04-15T05:30:29.084Z,9.29
2023-04-15T05:32:59.908Z,9.32
2023-04-15T05:35:30.685Z,9.32
2023-04-15T05:38:01.363Z,9.27
2023-04-15T05:40:32.976Z,9.22
2023-04-15T05:43:03.784Z,9.16
2023-04-15T05:45:34.444Z,9.10
2023-04-15T05:48:05.293Z,9.01
2023-04-15T05:50:35.894Z,8.97
2023-04-15T05:53:06.490Z,8.96
2023-04-15T05:55:37.259Z,8.95
2023-04-15T05:58:08.021Z,8.99
2023-04-15T06:00:38.734Z,9.06
2023-04-15T06:03:09.459Z,9.10
2023-04-15T06:05:40.679Z,9.10
2023-04-15T06:08:11.566Z,9.13
2023-04-15T06:10:42.249Z,9.24
2023-04-15T06:13:13.286Z,9.32
2023-04-15T06:15:44.273Z,9.38
2023-04-15T06:18:14.857Z,9.42
2023-04-15T06:20:45.464Z,9.39
2023-04-15T06:23:16.099Z,9.37
2023-04-15T06:25:46.992Z,9.35
2023-04-15T06:28:17.721Z,9.38
2023-04-15T06:30:48.588Z,9.44
2023-04-15T06:33:19.309Z,9.51
2023-04-15T06:35:51.012Z,9.60
2023-04-15T06:38:21.632Z,9.69
2023-04-15T06:40:52.944Z,9.73
2023-04-15T06:43:24.385Z,9.76
2023-04-15T06:45:55.108Z,9.79
2023-04-15T06:48:25.886Z,9.87
2023-04-15T06:50:58.305Z,9.94
2023-04-15T06:53:29.310Z,10.02
2023-04-15T06:56:00.181Z,10.09
2023-04-15T06:58:31.098Z,10.14
2023-04-15T07:01:01.886Z,10.17
2023-04-15T07:03:33.113Z,10.19
2023-04-15T07:06:06.644Z,10.22
2023-04-15T07:08:37.817Z,10.21
2023-04-15T07:11:08.790Z,10.18
2023-04-15T07:13:39.722Z,10.14
2023-04-15T07:16:10.584Z,10.16
2023-04-15T07:18:41.348Z,10.15
2023-04-15T07:21:12.682Z,10.15
2023-04-15T07:23:43.406Z,10.16
2023-04-15T07:26:14.146Z,10.20
2023-04-15T07:28:46.414Z,10.26
2023-04-15T07:31:17.958Z,10.30
2023-04-15T07:33:48.727Z,10.39
2023-04-15T07:36:19.698Z,10.42
2023-04-15T07:38:50.552Z,10.53
2023-04-15T07:41:21.811Z,10.73
2023-04-15T07:43:52.544Z,10.76
2023-04-15T07:46:24.763Z,10.68
2023-04-15T07:48:55.544Z,10.55
2023-04-15T07:51:26.274Z,10.42
2023-04-15T07:53:57.172Z,10.29
2023-04-15T07:56:27.965Z,10.19
2023-04-15T07:58:58.763Z,10.13
2023-04-15T08:01:29.487Z,10.09
2023-04-15T08:04:00.484Z,10.06
2023-04-15T08:06:31.552Z,10.07
2023-04-15T08:09:03.609Z,10.06
2023-04-15T08:11:34.599Z,10.08
2023-04-15T08:14:05.242Z,10.11
2023-04-15T08:16:37.134Z,10.10
2023-04-15T08:19:07.946Z,10.09
2023-04-15T08:21:39.487Z,10.09
2023-04-15T08:24:11.540Z,10.08
2023-04-15T08:26:42.230Z,10.10
2023-04-15T08:29:12.899Z,10.13
2023-04-15T08:31:43.701Z,10.16
2023-04-15T08:34:15.702Z,10.20
2023-04-15T08:36:46.524Z,10.20
2023-04-15T08:39:17.322Z,10.23
2023-04-15T08:41:52.762Z,10.29
2023-04-15T08:44:24.881Z,10.32
2023-04-15T08:46:57.138Z,10.37
2023-04-15T08:49:30.086Z,10.40
2023-04-15T08:52:01.820Z,10.43
2023-04-15T08:54:33.465Z,10.44
2023-04-15T08:57:04.824Z,10.44
2023-04-15T08:59:35.896Z,10.44
2023-04-15T09:02:07.214Z,10.43
2023-04-15T09:04:37.937Z,10.43
2023-04-15T09:07:08.589Z,10.42
2023-04-15T09:09:40.403Z,10.42
2023-04-15T09:12:13.526Z,10.40
2023-04-15T09:14:47.300Z,10.36
2023-04-15T09:17:22.327Z,10.26
2023-04-15T09:20:08.732Z,10.14
2023-04-15T09:22:39.839Z,10.07
2023-04-15T09:25:28.837Z,9.99
2023-04-15T09:28:01.995Z,9.97
2023-04-15T09:30:32.810Z,9.96
2023-04-15T09:33:08.949Z,9.95
2023-04-15T09:35:39.989Z,9.92
2023-04-15T09:38:11.532Z,9.90
2023-04-15T09:40:43.230Z,9.84
2023-04-15T09:43:13.887Z,9.76
2023-04-15T09:45:50.877Z,9.68
2023-04-15T09:48:25.421Z,9.62
2023-04-15T09:51:01.954Z,9.58
2023-04-15T09:53:36.582Z,9.55
2023-04-15T09:56:09.171Z,9.54
2023-04-15T09:58:41.647Z,9.51
2023-04-15T10:01:12.392Z,9.51
2023-04-15T10:03:43.950Z,9.54
2023-04-15T10:06:16.627Z,9.57
2023-04-15T10:08:46.534Z,9.58
2023-04-15T10:11:19.764Z,9.59
2023-04-15T10:13:52.805Z,9.58
2023-04-15T10:16:25.741Z,9.58
2023-04-15T10:18:58.771Z,9.58
2023-04-15T10:21:35.129Z,9.59
2023-04-15T10:24:07.470Z,9.61
2023-04-15T10:26:38.726Z,9.61
2023-04-15T10:29:10.717Z,9.57
2023-04-15T10:31:42.410Z,9.56
2023-04-15T10:34:13.614Z,9.56
2023-04-15T10:36:44.416Z,9.57
2023-04-15T10:39:42.104Z,9.59
2023-04-15T10:42:13.982Z,9.58
2023-04-15T10:44:51.579Z,9.58
2023-04-15T10:47:23.436Z,9.57
2023-04-15T10:49:59.292Z,9.55
2023-04-15T10:52:30.967Z,9.54
2023-04-15T10:55:16.816Z,9.59
2023-04-15T10:57:47.873Z,9.70
2023-04-15T11:00:20.418Z,9.75
2023-04-15T11:02:56.862Z,9.78
2023-04-15T11:05:52.218Z,9.86
2023-04-15T11:08:43.352Z,9.92
2023-04-15T11:11:13.963Z,9.98
2023-04-15T11:13:52.975Z,10.01
2023-04-15T11:16:23.921Z,10.05
2023-04-15T11:18:58.144Z,10.05
2023-04-15T11:21:29.195Z,10.08
2023-04-15T11:24:00.757Z,10.09
2023-04-15T11:26:32.875Z,10.13
2023-04-15T11:29:03.911Z,10.15
2023-04-15T11:31:34.698Z,10.20
2023-04-15T11:34:05.793Z,10.26
2023-04-15T11:36:36.793Z,10.31
2023-04-15T11:39:09.928Z,10.39
2023-04-15T11:41:43.299Z,10.45
2023-04-15T11:44:21.054Z,10.50
2023-04-15T11:46:51.784Z,10.52
2023-04-15T11:49:34.002Z,10.53
2023-04-15T11:52:11.656Z,10.55
2023-04-15T11:54:42.425Z,10.56
2023-04-15T11:57:13.187Z,10.57
2023-04-15T11:59:46.935Z,10.57
2023-04-15T12:02:19.531Z,10.56
2023-04-15T12:04:50.964Z,10.58
2023-04-15T12:07:21.778Z,10.60
2023-04-15T12:09:58.913Z,10.56
2023-04-15T12:12:31.619Z,10.55
2023-04-15T12:15:02.575Z,10.52
2023-04-15T12:17:51.659Z,10.45
2023-04-15T12:20:27.945Z,10.43
2023-04-15T12:23:08.336Z,10.44
2023-04-15T12:25:39.337Z,10.47
2023-04-15T12:28:15.294Z,10.53
2023-04-15T12:30:53.596Z,10.61
2023-04-15T12:33:24.522Z,10.63
2023-04-15T12:35:55.288Z,10.64
2023-04-15T12:38:26.098Z,10.60
2023-04-15T12:40:57.025Z,10.56
2023-04-15T12:43:28.278Z,10.57
2023-04-15T12:45:59.104Z,10.55
2023-04-15T12:48:29.826Z,10.55
2023-04-15T12:51:00.727Z,10.58
2023-04-15T12:53:31.618Z,10.62
2023-04-15T12:56:02.557Z,10.64
2023-04-15T12:58:33.646Z,10.68
2023-04-15T13:01:04.326Z,10.68
2023-04-15T13:03:35.281Z,10.71
2023-04-15T13:06:07.141Z,10.74
2023-04-15T13:08:42.568Z,10.76
2023-04-15T13:11:16.034Z,10.81
2023-04-15T13:13:46.797Z,10.83
2023-04-15T13:16:17.442Z,10.85
2023-04-15T13:18:48.208Z,10.86
2023-04-15T13:21:19.442Z,10.87
2023-04-15T13:23:51.824Z,10.87
2023-04-15T13:26:22.933Z,10.86
2023-04-15T13:28:53.551Z,10.86
2023-04-15T13:31:24.233Z,10.89
2023-04-15T13:33:55.200Z,10.94
2023-04-15T13:36:26.426Z,11.00
2023-04-15T13:38:57.849Z,11.09
2023-04-15T13:41:28.737Z,11.16
2023-04-15T13:43:59.561Z,11.24
2023-04-15T13:46:30.196Z,11.32
2023-04-15T13:49:00.884Z,11.42
2023-04-15T13:51:31.935Z,11.58
2023-04-15T13:54:03.026Z,11.73
2023-04-15T13:56:33.872Z,11.83
2023-04-15T13:59:06.663Z,11.89
2023-04-15T14:01:37.517Z,11.93
2023-04-15T14:04:09.100Z,11.94
2023-04-15T14:06:40.484Z,11.95
2023-04-15T14:09:11.225Z,11.96
2023-04-15T14:11:41.945Z,12.01
2023-04-15T14:14:13.525Z,12.03
2023-04-15T14:16:45.478Z,12.05
2023-04-15T14:19:16.176Z,12.06
2023-04-15T14:21:47.075Z,12.10
2023-04-15T14:24:17.769Z,12.10
2023-04-15T14:26:48.519Z,12.07
2023-04-15T14:29:19.185Z,12.09
2023-04-15T14:32:04.147Z,12.07
2023-04-15T14:34:40.919Z,12.06
2023-04-15T14:37:11.720Z,12.05
2023-04-15T14:39:42.543Z,12.00
2023-04-15T14:42:13.174Z,11.99
2023-04-15T14:44:44.918Z,11.98
2023-04-15T14:47:16.275Z,12.00
2023-04-15T14:49:46.922Z,12.03
2023-04-15T14:52:17.747Z,12.03
2023-04-15T14:54:48.528Z,12.01
2023-04-15T14:57:19.212Z,11.98
2023-04-15T14:59:50.034Z,11.94
2023-04-15T15:02:37.302Z,11.88
2023-04-15T15:05:11.480Z,11.87
2023-04-15T15:07:42.768Z,11.90
2023-04-15T15:10:13.460Z,11.94
2023-04-15T15:12:44.270Z,11.97
2023-04-15T15:15:28.049Z,11.99
2023-04-15T15:17:59.982Z,11.99
2023-04-15T15:20:31.724Z,12.00
2023-04-15T15:23:02.602Z,11.98
2023-04-15T15:25:33.347Z,11.98
2023-04-15T15:28:04.103Z,11.99
2023-04-15T15:30:34.910Z,12.00
2023-04-15T15:33:05.613Z,11.95
2023-04-15T15:35:36.470Z,11.95
2023-04-15T15:38:07.110Z,11.94
2023-04-15T15:40:37.927Z,11.92
2023-04-15T15:43:08.639Z,11.91
2023-04-15T15:45:39.396Z,11.91
2023-04-15T15:48:10.572Z,11.87
2023-04-15T15:50:41.262Z,11.85
2023-04-15T15:53:12.475Z,11.81
2023-04-15T15:55:43.171Z,11.77
2023-04-15T15:58:13.894Z,11.76
2023-04-15T16:00:44.691Z,11.74
2023-04-15T16:03:16.195Z,11.70
2023-04-15T16:05:47.907Z,11.66
2023-04-15T16:08:20.046Z,11.63
2023-04-15T16:10:51.014Z,11.59
2023-04-15T16:13:22.096Z,11.58
2023-04-15T16:15:52.773Z,11.57
2023-04-15T16:18:23.560Z,11.53
2023-04-15T16:20:54.284Z,11.50
2023-04-15T16:23:24.935Z,11.48
2023-04-15T16:25:55.933Z,11.48
2023-04-15T16:28:27.409Z,11.49
2023-04-15T16:30:58.302Z,11.50
2023-04-15T16:33:29.501Z,11.48
2023-04-15T16:36:00.169Z,11.49
2023-04-15T16:38:30.768Z,11.48
2023-04-15T16:41:02.662Z,11.44
2023-04-15T16:43:33.498Z,11.41
2023-04-15T16:46:04.418Z,11.40
2023-04-15T16:48:35.481Z,11.37
2023-04-15T16:51:06.683Z,11.35
2023-04-15T16:53:37.412Z,11.43
2023-04-15T16:56:08.958Z,11.70
2023-04-15T16:58:39.725Z,11.92
2023-04-15T17:01:10.821Z,12.14
2023-04-15T17:03:41.706Z,12.39
2023-04-15T17:06:12.523Z,12.60
2023-04-15T17:08:43.244Z,12.74
2023-04-15T17:11:15.164Z,12.84
2023-04-15T17:13:46.250Z,12.91
2023-04-15T17:16:17.089Z,12.83
2023-04-15T17:18:50.263Z,12.71
2023-04-15T17:21:21.497Z,12.57
2023-04-15T17:23:53.104Z,12.42
2023-04-15T17:26:23.876Z,12.27
2023-04-15T17:28:54.803Z,12.13
2023-04-15T17:31:25.912Z,12.00
2023-04-15T17:34:05.350Z,11.90
2023-04-15T17:36:40.703Z,11.79
2023-04-15T17:39:11.684Z,11.71
2023-04-15T17:41:42.399Z,11.62
2023-04-15T17:44:13.180Z,11.51
2023-04-15T17:46:44.132Z,11.41
2023-04-15T17:49:15.043Z,11.31
2023-04-15T17:51:46.673Z,11.23
2023-04-15T17:54:17.359Z,11.14
2023-04-15T17:56:49.129Z,11.08
2023-04-15T17:59:19.892Z,11.03
2023-04-15T18:01:50.713Z,10.97
2023-04-15T18:04:22.085Z,10.91
2023-04-15T18:06:55.704Z,10.84
2023-04-15T18:09:26.429Z,10.79
2023-04-15T18:11:57.960Z,10.73
2023-04-15T18:14:34.848Z,10.68
2023-04-15T18:17:05.919Z,10.63
2023-04-15T18:19:36.677Z,10.60
2023-04-15T18:22:07.263Z,10.56
2023-04-15T18:24:38.016Z,10.53
2023-04-15T18:27:08.726Z,10.49
2023-04-15T18:29:39.479Z,10.46
2023-04-15T18:32:10.968Z,10.42
2023-04-15T18:34:42.938Z,10.39
2023-04-15T18:37:13.607Z,10.35
2023-04-15T18:39:44.560Z,10.32
2023-04-15T18:42:15.223Z,10.28
2023-04-15T18:44:46.125Z,10.22
2023-04-15T18:47:16.903Z,10.15
2023-04-15T18:49:47.548Z,10.11
2023-04-15T18:52:18.327Z,10.05
2023-04-15T18:54:49.045Z,10.01
2023-04-15T18:57:23.089Z,9.96
2023-04-15T19:00:03.569Z,9.90
2023-04-15T19:02:34.480Z,9.87
2023-04-15T19:05:05.672Z,9.86
2023-04-15T19:07:36.417Z,9.84
2023-04-15T19:10:08.664Z,9.84
2023-04-15T19:12:40.199Z,9.82
2023-04-15T19:15:13.299Z,9.79
2023-04-15T19:17:44.145Z,9.77
2023-04-15T19:20:15.108Z,9.75
2023-04-15T19:22:45.831Z,9.72
2023-04-15T19:25:16.509Z,9.71
2023-04-15T19:27:47.119Z,9.70
2023-04-15T19:30:17.806Z,9.68
2023-04-15T19:32:48.587Z,9.65
2023-04-15T19:35:19.873Z,9.61
2023-04-15T19:37:51.163Z,9.57
2023-04-15T19:40:22.059Z,9.55
2023-04-15T19:42:52.769Z,9.52
2023-04-15T19:45:23.539Z,9.48
2023-04-15T19:47:54.213Z,9.45
2023-04-15T19:50:27.615Z,9.42
2023-04-15T19:52:58.360Z,9.41
2023-04-15T19:55:29.131Z,9.39
2023-04-15T19:58:00.127Z,9.37
2023-04-15T20:00:31.625Z,9.34
2023-04-15T20:03:02.772Z,9.29
2023-04-15T20:05:33.542Z,9.27
2023-04-15T20:08:04.559Z,9.25
2023-04-15T20:10:35.628Z,9.22
2023-04-15T20:13:06.531Z,9.21
2023-04-15T20:15:37.235Z,9.21
2023-04-15T20:18:07.901Z,9.18
2023-04-15T20:20:40.164Z,9.19
2023-04-15T20:23:10.904Z,9.20
2023-04-15T20:25:42.719Z,9.15
2023-04-15T20:28:13.779Z,9.10
2023-04-15T20:30:44.628Z,9.06
2023-04-15T20:33:15.428Z,9.03
2023-04-15T20:35:46.332Z,8.99
2023-04-15T20:38:16.978Z,8.94
2023-04-15T20:40:47.921Z,8.99
2023-04-15T20:43:18.622Z,9.11
2023-04-15T20:45:50.748Z,9.25
2023-04-15T20:48:22.042Z,9.40
2023-04-15T20:50:52.879Z,9.48
2023-04-15T20:53:23.520Z,9.58
2023-04-15T20:55:54.188Z,9.67
2023-04-15T20:58:26.369Z,9.71
2023-04-15T21:00:58.812Z,9.69
2023-04-15T21:03:29.570Z,9.63
2023-04-15T21:06:00.488Z,9.59
2023-04-15T21:08:31.681Z,9.46
2023-04-15T21:11:02.348Z,9.34
2023-04-15T21:13:33.144Z,9.28
2023-04-15T21:16:03.940Z,9.33
2023-04-15T21:18:34.652Z,9.42
2023-04-15T21:21:06.038Z,9.53
2023-04-15T21:23:36.706Z,9.57
2023-04-15T21:26:07.510Z,9.51
2023-04-15T21:28:39.361Z,9.41
2023-04-15T21:31:10.096Z,9.31
2023-04-15T21:33:40.871Z,9.21
2023-04-15T21:36:11.612Z,9.18
2023-04-15T21:38:42.217Z,9.23
2023-04-15T21:41:12.996Z,9.31
2023-04-15T21:43:43.675Z,9.38
2023-04-15T21:46:23.006Z,9.47
2023-04-15T21:48:56.045Z,9.58
2023-04-15T21:51:27.697Z,9.66
2023-04-15T21:53:58.373Z,9.69
2023-04-15T21:56:29.183Z,9.65
2023-04-15T21:59:00.191Z,9.56
2023-04-15T22:01:30.924Z,9.38
2023-04-15T22:04:01.917Z,9.19
2023-04-15T22:06:32.955Z,9.04
2023-04-15T22:09:03.567Z,8.95
2023-04-15T22:11:34.345Z,8.96
2023-04-15T22:14:05.357Z,8.99
2023-04-15T22:16:35.978Z,9.06
2023-04-15T22:19:06.989Z,9.05
2023-04-15T22:21:38.121Z,9.04
2023-04-15T22:24:38.574Z,9.11
2023-04-15T22:26:59.784Z,9.20
2023-04-15T22:29:30.950Z,9.30
2023-04-15T22:32:01.598Z,9.40
2023-04-15T22:34:32.171Z,9.44
2023-04-15T22:37:02.808Z,9.43
2023-04-15T22:39:33.460Z,9.45
2023-04-15T22:42:04.210Z,9.45
2023-04-15T22:44:34.967Z,9.43
2023-04-15T22:47:05.871Z,9.39
2023-04-15T22:49:36.528Z,9.42
2023-04-15T22:52:12.259Z,9.47
2023-04-15T22:54:48.137Z,9.49
2023-04-15T22:57:18.853Z,9.53
2023-04-15T22:59:49.797Z,9.54
2023-04-15T23:02:21.151Z,9.51
2023-04-15T23:04:51.961Z,9.37
2023-04-15T23:07:22.791Z,9.42
2023-04-15T23:09:53.536Z,9.46
2023-04-15T23:12:24.304Z,9.48
2023-04-15T23:14:55.066Z,9.47
2023-04-15T23:17:26.760Z,9.45
2023-04-15T23:19:57.640Z,9.48
2023-04-15T23:22:28.326Z,9.54
2023-04-15T23:24:58.958Z,9.60
2023-04-15T23:27:29.507Z,9.65
2023-04-15T23:30:00.134Z,9.70
2023-04-15T23:32:30.906Z,9.69
2023-04-15T23:35:01.824Z,9.66
2023-04-15T23:37:32.922Z,9.61
2023-04-15T23:40:03.718Z,9.45
2023-04-15T23:42:34.406Z,9.37
2023-04-15T23:45:05.555Z,9.32
2023-04-15T23:47:36.169Z,9.31
2023-04-15T23:50:08.091Z,9.34
2023-04-15T23:52:38.960Z,9.39
2023-04-15T23:55:11.451Z,9.45
2023-04-15T23:57:42.781Z,9.48
